Time;durP1;ratioP1;P1;durP2;ratioP2;P2;SDS_P1;SDS_P2;PMS_P1;PMS_P2;Temp;Humidity;BMP_temperature;BMP_pressure;BME280_temperature;BME280_humidity;BME280_pressure;Samples;Min_cycle;Max_cycle;Signal;HPM_P1;HPM_P2
2022/09/05 00:00:18;;;;;;;4.45;4.25;;;;;;;15.98;100.00;101786.22;5204850;28;20025;-61
2022/09/05 00:02:57;;;;;;;4.47;4.13;;;;;;;15.95;100.00;101784.03;5202722;28;20049;-61
2022/09/05 00:05:34;;;;;;;4.68;4.20;;;;;;;15.96;100.00;101782.13;5201472;28;20290;-63
2022/09/05 00:08:08;;;;;;;3.60;3.40;;;;;;;15.98;100.00;101780.78;5202201;28;20496;-59
2022/09/05 00:10:53;;;;;;;12.73;5.80;;;;;;;15.92;100.00;101779.13;5203243;28;20508;-61
2022/09/05 00:13:29;;;;;;;6.05;4.45;;;;;;;15.92;100.00;101775.59;5203443;28;20029;-58
2022/09/05 00:16:23;;;;;;;4.75;3.80;;;;;;;15.92;100.00;101776.41;5203740;28;20076;-59
2022/09/05 00:18:59;;;;;;;4.75;4.22;;;;;;;15.94;100.00;101778.88;5203457;28;20405;-61
2022/09/05 00:22:07;;;;;;;10.70;5.13;;;;;;;15.90;100.00;101784.03;5203814;28;20541;-59
2022/09/05 00:24:49;;;;;;;4.13;3.92;;;;;;;15.85;100.00;101775.88;5202930;28;20485;-62
2022/09/05 00:27:37;;;;;;;5.30;4.78;;;;;;;15.84;100.00;101780.50;5203483;28;20109;-62
2022/09/05 00:30:17;;;;;;;3.90;3.78;;;;;;;15.81;100.00;101777.50;5203731;28;20033;-60
2022/09/05 00:32:53;;;;;;;4.82;3.78;;;;;;;15.84;100.00;101775.06;5203256;28;20030;-63
2022/09/05 00:35:43;;;;;;;4.95;4.65;;;;;;;15.84;100.00;101785.13;5201414;28;20393;-61
2022/09/05 00:38:15;;;;;;;;;;;;;;;15.76;100.00;101778.28;5203677;28;20018;-62
2022/09/05 00:41:01;;;;;;;5.22;4.93;;;;;;;15.73;100.00;101780.72;5201579;28;19909;-63
2022/09/05 00:43:37;;;;;;;4.70;4.30;;;;;;;15.76;100.00;101777.47;5201446;28;20025;-60
2022/09/05 00:46:16;;;;;;;4.75;4.45;;;;;;;15.73;100.00;101778.00;5203131;28;20485;-60
2022/09/05 00:49:11;;;;;;;4.80;4.50;;;;;;;15.66;100.00;101777.44;5202119;28;20025;-59
2022/09/05 00:51:47;;;;;;;4.78;4.13;;;;;;;15.69;100.00;101766.00;5203435;28;20041;-60
2022/09/05 00:54:49;;;;;;;6.60;6.07;;;;;;;15.72;100.00;101771.75;5202325;28;20045;-61
2022/09/05 00:57:46;;;;;;;5.85;4.97;;;;;;;15.63;100.00;101769.78;5203394;28;20045;-59
2022/09/05 01:00:21;;;;;;;4.25;3.95;;;;;;;15.57;100.00;101765.44;5203322;28;20056;-62
2022/09/05 01:03:16;;;;;;;4.57;4.07;;;;;;;15.53;100.00;101768.66;5202901;28;20030;-61
2022/09/05 01:06:21;;;;;;;7.93;4.80;;;;;;;15.52;100.00;101767.03;5202952;28;20417;-64
2022/09/05 01:09:05;;;;;;;3.97;3.78;;;;;;;15.49;100.00;101764.00;5202869;28;20026;-64
2022/09/05 01:12:03;;;;;;;5.45;5.15;;;;;;;15.49;100.00;101762.09;5202259;28;20030;-61
2022/09/05 01:14:50;;;;;;;5.20;4.05;;;;;;;15.49;100.00;101762.09;5202642;28;20030;-64
2022/09/05 01:17:26;;;;;;;4.00;3.80;;;;;;;15.48;100.00;101755.03;5203559;28;20478;-61
2022/09/05 01:20:12;;;;;;;4.72;4.47;;;;;;;15.50;100.00;101752.84;5203184;28;20029;-62
2022/09/05 01:22:48;;;;;;;5.18;4.88;;;;;;;15.63;100.00;101757.00;5200758;28;20030;-62
2022/09/05 01:25:32;;;;;;;5.55;4.15;;;;;;;15.53;100.00;101757.78;5202843;28;20017;-62
2022/09/05 01:28:23;;;;;;;5.05;4.75;;;;;;;15.53;100.00;101754.22;5201666;28;20037;-63
2022/09/05 01:30:59;;;;;;;5.10;4.63;;;;;;;15.53;100.00;101756.94;5201722;28;20045;-62
2022/09/05 01:33:48;;;;;;;4.20;4.00;;;;;;;15.56;100.00;101755.59;5202477;28;20030;-62
2022/09/05 01:36:47;;;;;;;4.72;4.32;;;;;;;15.55;100.00;101757.50;5204243;28;20033;-64
2022/09/05 01:39:39;;;;;;;4.20;4.00;;;;;;;15.51;100.00;101754.50;5206792;28;20401;-60
2022/09/05 01:42:36;;;;;;;5.85;4.80;;;;;;;15.51;100.00;101754.50;5205337;28;20058;-62
2022/09/05 01:45:19;;;;;;;4.63;4.40;;;;;;;15.47;100.00;101747.94;5206451;28;20033;-62
2022/09/05 01:48:06;;;;;;;3.65;3.35;;;;;;;15.42;100.00;101747.91;5205141;28;20396;-63
2022/09/05 01:51:11;;;;;;;6.00;4.63;;;;;;;15.39;100.00;101759.34;5206575;28;20491;-61
2022/09/05 01:54:05;;;;;;;5.38;4.85;;;;;;;15.36;100.00;101750.88;5206104;28;20321;-62
2022/09/05 01:57:02;;;;;;;4.90;4.38;;;;;;;15.33;100.00;101757.69;5195817;28;20163;-62
2022/09/05 01:59:38;;;;;;;4.40;4.18;;;;;;;15.17;100.00;101734.22;5206802;28;20044;-63
2022/09/05 02:02:22;;;;;;;5.18;4.80;;;;;;;15.38;100.00;101754.97;5206872;28;20436;-63
2022/09/05 02:04:58;;;;;;;4.68;4.47;;;;;;;15.51;100.00;101750.97;5206651;28;20021;-62
2022/09/05 02:07:53;;;;;;;4.28;3.97;;;;;;;15.60;100.00;101756.72;5205322;28;20029;-62
2022/09/05 02:11:02;;;;;;;5.85;4.63;;;;;;;15.61;100.00;101764.63;5206752;28;20065;-62
2022/09/05 02:13:33;;;;;;;5.30;4.90;;;;;;;15.61;100.00;101761.91;5161837;28;20067;-61
2022/09/05 02:16:24;;;;;;;4.63;4.32;;;;;;;15.60;100.00;101757.53;5206466;28;20021;-63
2022/09/05 02:19:03;;;;;;;8.85;4.60;;;;;;;15.58;100.00;101761.63;5205961;28;20028;-65
2022/09/05 02:21:40;;;;;;;15.90;5.20;;;;;;;15.49;100.00;101753.94;5205919;28;20035;-61
2022/09/05 02:24:14;;;;;;;4.65;4.35;;;;;;;15.42;100.00;101758.00;5204106;28;20037;-62
2022/09/05 02:27:09;;;;;;;3.83;3.63;;;;;;;15.33;100.00;101765.84;5204420;28;20037;-61
2022/09/05 02:29:56;;;;;;;5.35;5.05;;;;;;;15.24;100.00;101764.72;5205656;28;20104;-62
2022/09/05 02:32:53;;;;;;;4.95;4.75;;;;;;;15.15;100.00;101767.13;5204324;28;20033;-62
2022/09/05 02:35:59;;;;;;;5.63;5.22;;;;;;;15.12;100.00;101767.66;5204912;28;20025;-65
2022/09/05 02:38:45;;;;;;;8.15;4.65;;;;;;;15.00;100.00;101764.34;5205759;28;20045;-63
2022/09/05 02:41:31;;;;;;;5.43;4.88;;;;;;;14.99;100.00;101767.31;5204223;28;20021;-61
2022/09/05 02:44:30;;;;;;;9.07;4.72;;;;;;;14.90;100.00;101763.44;5203427;28;20063;-63
2022/09/05 02:47:15;;;;;;;5.00;4.43;;;;;;;14.89;100.00;101772.69;5204626;28;20025;-64
2022/09/05 02:50:04;;;;;;;6.10;4.47;;;;;;;14.83;100.00;101769.94;5204895;28;20040;-60
2022/09/05 02:52:40;;;;;;;6.32;4.85;;;;;;;14.76;100.00;101766.63;5205333;28;20473;-65
2022/09/05 02:55:21;;;;;;;4.68;4.38;;;;;;;14.66;100.00;101747.53;5204817;28;20041;-61
2022/09/05 02:58:36;;;;;;;5.55;4.68;;;;;;;14.74;100.00;101751.63;5205181;28;20390;-64
2022/09/05 03:01:21;;;;;;;5.72;5.22;;;;;;;14.70;100.00;101761.44;5189664;28;20041;-62
2022/09/05 03:04:02;;;;;;;4.60;4.32;;;;;;;14.67;100.00;101765.47;5204799;28;20029;-63
2022/09/05 03:07:05;;;;;;;5.07;4.78;;;;;;;14.66;100.00;101758.41;5205637;28;20033;-63
2022/09/05 03:09:44;;;;;;;4.60;4.20;;;;;;;14.69;100.00;101749.72;5192937;28;20116;-63
2022/09/05 03:12:49;;;;;;;4.07;3.88;;;;;;;14.69;100.00;101752.44;5205547;28;20057;-63
2022/09/05 03:15:48;;;;;;;7.18;5.60;;;;;;;14.71;100.00;101753.00;5203496;28;20039;-63
2022/09/05 03:18:42;;;;;;;4.97;4.67;;;;;;;14.73;100.00;101744.56;5205168;28;20034;-65
2022/09/05 03:21:49;;;;;;;5.95;5.40;;;;;;;14.76;100.00;101749.47;5204023;28;20032;-65
2022/09/05 03:24:38;;;;;;;6.63;5.80;;;;;;;14.78;100.00;101753.56;5204410;28;20081;-63
2022/09/05 03:27:28;;;;;;;5.60;5.30;;;;;;;14.84;100.00;101749.00;5204696;28;20025;-65
2022/09/05 03:30:11;;;;;;;5.93;5.43;;;;;;;14.92;100.00;101751.22;5203646;28;20052;-66
2022/09/05 03:33:36;;;;;;;4.55;4.28;;;;;;;14.98;100.00;101754.81;5204732;28;20025;-63
2022/09/05 03:36:15;;;;;;;6.38;5.97;;;;;;;15.03;100.00;101749.38;5141418;28;20038;-63
2022/09/05 03:39:04;;;;;;;5.88;5.47;;;;;;;15.14;100.00;101742.91;5198022;28;20040;-64
2022/09/05 03:41:44;;;;;;;7.05;6.38;;;;;;;15.16;100.00;101747.00;5204616;28;20083;-62
2022/09/05 03:44:38;;;;;;;5.13;4.85;;;;;;;15.12;100.00;101740.44;5203044;28;20026;-63
2022/09/05 03:47:33;;;;;;;4.78;4.47;;;;;;;15.14;100.00;101748.34;5203929;28;20081;-63
2022/09/05 03:50:07;;;;;;;4.43;4.15;;;;;;;15.16;100.00;101748.91;5203078;28;20540;-65
2022/09/05 03:53:17;;;;;;;4.75;4.45;;;;;;;15.14;100.00;101748.34;5202971;28;20485;-64
2022/09/05 03:55:59;;;;;;;4.45;4.15;;;;;;;15.09;100.00;101748.31;5203820;28;20045;-63
2022/09/05 03:58:51;;;;;;;5.88;5.43;;;;;;;15.08;100.00;101747.50;5202501;28;20137;-63
2022/09/05 04:01:25;;;;;;;5.38;5.13;;;;;;;15.00;100.00;101739.84;5204462;28;20025;-61
2022/09/05 04:04:01;;;;;;;6.68;4.95;;;;;;;14.94;100.00;101749.06;5203981;28;20026;-63
2022/09/05 04:07:22;;;;;;;5.88;5.28;;;;;;;14.84;100.00;101757.16;5204574;28;20022;-63
2022/09/05 04:09:55;;;;;;;5.72;5.32;;;;;;;14.77;100.00;101749.22;5178870;28;20505;-63
2022/09/05 04:12:51;;;;;;;5.20;4.90;;;;;;;14.71;100.00;101753.00;5204819;28;20481;-64
2022/09/05 04:15:33;;;;;;;5.20;4.80;;;;;;;14.69;100.00;101751.63;5201508;28;20018;-65
2022/09/05 04:18:18;;;;;;;5.35;4.95;;;;;;;14.68;100.00;101753.53;5187728;28;20457;-63
2022/09/05 04:21:00;;;;;;;5.60;5.10;;;;;;;14.49;100.00;101725.09;5200170;28;20025;-65
2022/09/05 04:23:42;;;;;;;5.82;5.28;;;;;;;14.63;100.00;101752.66;5203568;28;20105;-63
2022/09/05 04:26:44;;;;;;;7.95;4.90;;;;;;;14.67;100.00;101753.78;5202684;28;20029;-64
2022/09/05 04:29:14;;;;;;;5.72;5.43;;;;;;;14.73;100.00;101745.38;5202675;28;20029;-66
2022/09/05 04:31:48;;;;;;;7.32;4.80;;;;;;;14.82;100.00;101749.25;5203781;28;20079;-64
2022/09/05 04:34:45;;;;;;;5.55;5.20;;;;;;;14.80;100.00;101748.69;5203412;28;20029;-63
2022/09/05 04:37:33;;;;;;;5.22;4.93;;;;;;;14.67;100.00;101738.31;5176771;28;20037;-64
2022/09/05 04:40:56;;;;;;;5.25;4.20;;;;;;;14.65;100.00;101751.34;5201705;28;20033;-63
2022/09/05 04:43:40;;;;;;;4.30;4.03;;;;;;;14.67;100.00;101751.88;5186575;28;20375;-64
2022/09/05 04:46:14;;;;;;;7.47;4.43;;;;;;;14.79;100.00;101757.13;5200952;28;20029;-64
2022/09/05 04:48:58;;;;;;;5.18;4.75;;;;;;;14.81;100.00;101760.41;5198451;28;20450;-63
2022/09/05 04:51:37;;;;;;;5.50;3.97;;;;;;;14.78;100.00;101761.72;5202276;28;20029;-64
2022/09/05 04:54:08;;;;;;;4.93;4.60;;;;;;;14.83;100.00;101759.06;5202658;28;20034;-66
2022/09/05 04:56:43;;;;;;;5.40;4.75;;;;;;;14.90;100.00;101763.44;5203146;28;20089;-64
2022/09/05 04:59:27;;;;;;;5.25;4.85;;;;;;;14.89;100.00;101765.34;5203108;28;20044;-64
2022/09/05 05:02:14;;;;;;;5.65;5.05;;;;;;;14.92;100.00;101764.81;5203462;28;20485;-64
2022/09/05 05:04:45;;;;;;;6.40;5.00;;;;;;;14.91;100.00;101765.09;5203116;28;20128;-67
2022/09/05 05:07:24;;;;;;;6.60;4.63;;;;;;;14.94;100.00;101776.25;5203317;28;20478;-63
2022/09/05 05:09:58;;;;;;;7.18;3.97;;;;;;;14.99;100.00;101780.91;5202958;28;20152;-65
2022/09/05 05:12:47;;;;;;;5.25;4.72;;;;;;;14.96;100.00;101774.09;5207786;28;20107;-64
2022/09/05 05:15:22;;;;;;;5.33;4.93;;;;;;;14.92;100.00;101783.03;5202185;28;20094;-63
2022/09/05 05:18:15;;;;;;;5.85;5.40;;;;;;;14.97;100.00;101786.63;5207121;28;20269;-64
2022/09/05 05:20:51;;;;;;;4.72;4.43;;;;;;;15.07;100.00;101785.84;5207799;28;20428;-64
2022/09/05 05:23:33;;;;;;;4.32;4.03;;;;;;;15.17;100.00;101783.19;5205080;28;20080;-63
2022/09/05 05:26:09;;;;;;;7.25;5.35;;;;;;;15.29;100.00;101783.81;5206810;28;20025;-63
2022/09/05 05:28:43;;;;;;;5.63;4.47;;;;;;;15.43;100.00;101786.84;5205920;28;20559;-64
2022/09/05 05:31:19;;;;;;;7.97;5.18;;;;;;;15.47;100.00;101780.59;5206732;28;20214;-65
2022/09/05 05:33:52;;;;;;;3.92;3.63;;;;;;;15.57;100.00;101787.22;5206478;28;20060;-65
2022/09/05 05:36:27;;;;;;;5.25;4.30;;;;;;;15.65;100.00;101790.22;5206671;28;20029;-65
2022/09/05 05:39:13;;;;;;;12.27;4.60;;;;;;;15.74;100.00;101785.91;5206472;28;20036;-65
2022/09/05 05:41:53;;;;;;;7.47;5.70;;;;;;;15.85;100.00;101787.59;5206470;28;20033;-65
2022/09/05 05:44:30;;;;;;;4.68;4.47;;;;;;;15.97;100.00;101790.03;5204564;28;20021;-64
2022/09/05 05:47:20;;;;;;;6.45;4.22;;;;;;;16.08;100.00;101791.72;5200603;28;20017;-65
2022/09/05 05:50:01;;;;;;;4.10;3.80;;;;;;;16.20;100.00;101777.81;5200370;28;20022;-64
2022/09/05 05:52:56;;;;;;;3.55;3.35;;;;;;;16.48;100.00;101799.09;5205150;28;20029;-65
2022/09/05 05:55:54;;;;;;;4.93;4.47;;;;;;;16.71;100.00;101795.03;5233991;22;20131;-67
2022/09/05 05:58:49;;;;;;;3.33;3.03;;;;;;;16.95;100.00;101795.28;5226543;28;20036;-67
2022/09/05 06:01:57;;;;;;;4.07;3.78;;;;;;;17.11;100.00;101779.66;5226376;28;20021;-68
2022/09/05 06:04:49;;;;;;;4.43;4.03;;;;;;;17.37;100.00;101800.34;5226213;28;20443;-66
2022/09/05 06:08:06;;;;;;;4.40;4.00;;;;;;;17.62;100.00;101795.84;5227257;28;20500;-66
2022/09/05 06:11:15;;;;;;;4.07;3.78;;;;;;;17.77;100.00;101784.91;5202982;28;20514;-66
2022/09/05 06:14:20;;;;;;;10.10;4.68;;;;;;;18.04;100.00;101801.69;5224520;28;20522;-68
2022/09/05 06:17:09;;;;;;;4.68;4.30;;;;;;;18.21;100.00;101791.16;5226219;28;20025;-67
2022/09/05 06:19:51;;;;;;;4.82;4.45;;;;;;;18.35;100.00;101793.25;5226075;28;20024;-66
2022/09/05 06:22:49;;;;;;;3.03;2.85;;;;;;;18.54;100.00;101789.53;5225274;28;20029;-66
2022/09/05 06:25:49;;;;;;;3.78;3.20;;;;;;;18.73;100.00;101797.09;5224386;28;20392;-66
2022/09/05 06:28:25;;;;;;;4.28;3.85;;;;;;;18.82;100.00;101793.41;5224865;28;20068;-66
2022/09/05 06:31:15;;;;;;;4.88;4.57;;;;;;;18.93;100.00;101798.78;5226389;28;20028;-65
2022/09/05 06:33:54;;;;;;;3.00;2.80;;;;;;;19.01;100.00;101793.50;5225987;28;20025;-67
2022/09/05 06:36:43;;;;;;;5.07;4.68;;;;;;;19.04;100.00;101782.00;5226258;28;20020;-66
2022/09/05 06:39:35;;;;;;;3.60;3.30;;;;;;;19.23;100.00;101796.56;5226566;28;20050;-67
2022/09/05 06:42:32;;;;;;;5.80;4.13;;;;;;;19.34;100.00;101800.00;5226960;28;20024;-66
2022/09/05 06:45:15;;;;;;;3.20;3.00;;;;;;;19.41;100.00;101803.19;5224511;28;20039;-66
2022/09/05 06:47:49;;;;;;;3.97;2.78;;;;;;;19.44;100.00;101807.25;5226119;28;20044;-67
2022/09/05 06:50:23;;;;;;;3.42;3.30;;;;;;;19.52;100.00;101820.34;5226324;28;20120;-66
2022/09/05 06:53:24;;;;;;;6.93;2.78;;;;;;;19.57;100.00;101816.75;5225068;28;20029;-68
2022/09/05 06:56:00;;;;;;;3.65;3.35;;;;;;;19.64;100.00;101818.00;5225793;28;20063;-66
2022/09/05 06:59:18;;;;;;;10.43;4.22;;;;;;;19.69;100.00;101819.84;5226017;28;20029;-66
2022/09/05 07:02:07;;;;;;;3.97;3.78;;;;;;;19.75;100.00;101818.69;5160532;28;20058;-67
2022/09/05 07:04:47;;;;;;;10.90;5.55;;;;;;;19.82;100.00;101809.00;5161180;28;20041;-67
2022/09/05 07:07:26;;;;;;;3.35;3.15;;;;;;;19.86;100.00;101798.25;5212590;28;20405;-66
2022/09/05 07:10:12;;;;;;;5.72;4.22;;;;;;;20.05;100.00;101817.44;5225708;28;20204;-67
2022/09/05 07:12:42;;;;;;;3.20;3.00;;;;;;;20.17;100.00;101815.09;5225596;28;20036;-66
2022/09/05 07:15:39;;;;;;;3.70;3.40;;;;;;;20.30;100.00;101811.56;5224930;28;20025;-66
2022/09/05 07:18:21;;;;;;;4.13;3.70;;;;;;;20.45;100.00;101816.88;5225614;28;20508;-67
2022/09/05 07:20:57;;;;;;;4.18;2.95;;;;;;;20.61;100.00;101825.66;5225827;28;20021;-67
2022/09/05 07:23:43;;;;;;;13.02;4.13;;;;;;;20.79;100.00;101821.25;5226382;28;20025;-66
2022/09/05 07:26:17;;;;;;;4.53;3.42;;;;;;;21.00;100.00;101833.47;5226002;28;20064;-65
2022/09/05 07:28:53;;;;;;;3.67;3.53;;;;;;;21.21;100.00;101832.00;5225496;28;20048;-66
2022/09/05 07:31:27;;;;;;;3.78;3.35;;;;;;;21.44;100.00;101835.69;5225069;28;20040;-65
2022/09/05 07:34:21;;;;;;;5.07;3.55;;;;;;;21.56;100.00;101826.94;5222392;28;20246;-66
2022/09/05 07:36:56;;;;;;;5.80;3.35;;;;;;;21.59;100.00;101809.81;5225258;28;20020;-67
2022/09/05 07:39:36;;;;;;;5.72;3.17;;;;;;;21.87;100.00;101827.09;5225004;28;20024;-66
2022/09/05 07:42:14;;;;;;;5.35;4.00;;;;;;;22.10;100.00;101823.28;5223090;28;20078;-67
2022/09/05 07:45:09;;;;;;;3.10;2.90;;;;;;;22.28;100.00;101826.19;5224478;28;20017;-68
2022/09/05 07:47:47;;;;;;;11.23;4.80;;;;;;;22.41;100.00;101819.81;5225210;28;20495;-68
2022/09/05 07:50:17;;;;;;;3.05;2.92;;;;;;;22.63;100.00;101830.00;5225635;28;20035;-67
2022/09/05 07:52:49;;;;;;;4.55;4.25;;;;;;;22.88;100.00;101829.38;5225957;28;20369;-68
2022/09/05 07:55:24;;;;;;;4.15;3.58;;;;;;;22.94;100.00;101791.50;5224888;28;20074;-67
2022/09/05 07:57:59;;;;;;;2.65;2.55;;;;;;;23.37;100.00;101828.34;5226349;28;20119;-67
2022/09/05 08:00:30;;;;;;;3.63;3.15;;;;;;;23.60;100.00;101842.06;5224675;28;20025;-68
2022/09/05 08:03:12;;;;;;;3.08;2.85;;;;;;;23.66;100.00;101829.75;5223921;28;20032;-68
2022/09/05 08:05:46;;;;;;;7.38;2.95;;;;;;;23.72;100.00;101825.69;5224580;28;20102;-68
2022/09/05 08:08:23;;;;;;;3.17;2.97;;;;;;;23.84;100.00;101828.63;5223403;28;20029;-68
2022/09/05 08:10:57;;;;;;;2.25;2.15;;;;;;;23.89;100.00;101834.00;5224367;28;20396;-67
2022/09/05 08:13:42;;;;;;;3.30;3.10;;;;;;;23.82;100.00;101844.69;5223680;28;20024;-67
2022/09/05 08:16:18;;;;;;;4.10;3.67;;;;;;;23.77;100.00;101837.38;5224658;28;20060;-68
2022/09/05 08:19:05;;;;;;;3.17;2.92;;;;;;;23.79;100.00;101832.34;5224541;28;20100;-67
2022/09/05 08:21:47;;;;;;;2.90;2.70;;;;;;;23.83;100.00;101829.75;5224377;28;20365;-68
2022/09/05 08:24:25;;;;;;;2.55;2.35;;;;;;;24.15;100.00;101832.06;5223958;28;20049;-68
2022/09/05 08:27:31;;;;;;;2.42;2.33;;;;;;;24.54;100.00;101836.63;5222915;28;20244;-69
2022/09/05 08:30:06;;;;;;;4.35;3.47;;;;;;;24.97;100.00;101837.72;5190413;28;20060;-67
2022/09/05 08:32:51;;;;;;;4.90;3.00;;;;;;;25.31;100.00;101842.31;5224793;28;20025;-68
2022/09/05 08:35:37;;;;;;;3.67;2.80;;;;;;;25.41;100.00;101831.66;5223967;28;20025;-68
2022/09/05 08:38:08;;;;;;;2.95;2.85;;;;;;;25.55;100.00;101843.31;5224455;28;20049;-67
2022/09/05 08:40:47;;;;;;;5.38;2.55;;;;;;;25.71;99.80;101843.56;5224247;28;20487;-68
2022/09/05 08:43:36;;;;;;;2.22;2.13;;;;;;;25.88;97.84;101848.19;5224450;28;20409;-66
2022/09/05 08:46:07;;;;;;;;;;;;;;;26.11;95.59;101837.63;5224699;28;20483;-66
2022/09/05 08:48:56;;;;;;;3.33;2.33;;;;;;;26.27;94.75;101835.88;5224162;28;19996;-67
2022/09/05 08:51:48;;;;;;;;;;;;;;;26.53;93.32;101835.66;5223475;28;20283;-67
2022/09/05 08:54:39;;;;;;;2.80;2.35;;;;;;;26.68;90.88;101831.44;5223594;28;19919;-68
2022/09/05 08:57:15;;;;;;;2.88;2.63;;;;;;;26.84;89.99;101824.91;5224165;28;20418;-66
2022/09/05 09:00:05;;;;;;;3.53;2.60;;;;;;;26.99;90.53;101820.66;5224173;28;20036;-66
2022/09/05 09:02:58;;;;;;;2.72;2.50;;;;;;;27.13;87.21;101798.97;5225583;28;20024;-66
2022/09/05 09:05:56;;;;;;;7.45;3.58;;;;;;;27.35;87.66;101811.56;5225738;28;20063;-67
2022/09/05 09:08:26;;;;;;;3.20;2.55;;;;;;;27.46;83.95;101815.47;5224024;28;20025;-67
2022/09/05 09:11:29;;;;;;;3.70;2.47;;;;;;;27.54;83.08;101810.97;5224060;28;20029;-67
2022/09/05 09:14:34;;;;;;;3.67;2.25;;;;;;;27.73;82.86;101802.88;5223653;28;20037;-67
2022/09/05 09:17:29;;;;;;;2.63;2.53;;;;;;;27.88;81.06;101804.13;5222736;28;20029;-67
2022/09/05 09:20:09;;;;;;;1.58;1.55;;;;;;;28.07;80.10;101792.38;5222630;28;20385;-66
2022/09/05 09:22:53;;;;;;;2.53;2.42;;;;;;;28.10;80.89;101763.91;5223064;28;20055;-66
2022/09/05 09:26:04;;;;;;;3.38;1.85;;;;;;;28.40;77.57;101786.59;5223654;28;20053;-66
2022/09/05 09:28:46;;;;;;;2.20;2.10;;;;;;;28.43;78.23;101777.56;5223613;28;20041;-66
2022/09/05 09:31:22;;;;;;;6.03;2.13;;;;;;;28.51;77.01;101782.16;5222722;28;20291;-66
2022/09/05 09:34:14;;;;;;;2.22;2.08;;;;;;;28.60;76.80;101779.19;5223625;28;20554;-67
2022/09/05 09:36:54;;;;;;;1.80;1.70;;;;;;;28.76;74.37;101780.84;5223983;28;20236;-67
2022/09/05 09:39:43;;;;;;;2.03;1.92;;;;;;;28.82;73.72;101778.66;5223832;28;20029;-66
2022/09/05 09:42:35;;;;;;;3.22;2.78;;;;;;;28.92;74.04;101772.53;5223790;28;20028;-67
2022/09/05 09:45:27;;;;;;;2.85;2.65;;;;;;;29.06;73.13;101774.88;5223536;28;20369;-66
2022/09/05 09:48:09;;;;;;;2.80;2.60;;;;;;;29.19;71.80;101770.81;5223814;28;20285;-66
2022/09/05 09:50:43;;;;;;;2.00;1.90;;;;;;;29.35;72.02;101768.81;5222467;28;20036;-67
2022/09/05 09:53:19;;;;;;;2.33;2.17;;;;;;;29.43;69.20;101773.44;5223641;28;20421;-66
2022/09/05 09:55:59;;;;;;;1.55;1.45;;;;;;;29.41;68.20;101761.03;5222238;28;20059;-67
2022/09/05 09:58:41;;;;;;;2.47;2.05;;;;;;;29.40;68.31;101764.97;5225792;28;20025;-67
2022/09/05 10:01:17;;;;;;;2.25;2.15;;;;;;;29.33;67.48;101748.91;5227832;28;20017;-67
2022/09/05 10:04:11;;;;;;;2.03;1.67;;;;;;;29.45;67.87;101751.56;5228068;28;20036;-67
2022/09/05 10:06:54;;;;;;;2.88;2.47;;;;;;;29.40;65.81;101754.66;5219781;28;20120;-67
2022/09/05 10:09:40;;;;;;;2.20;2.10;;;;;;;29.54;66.42;101759.72;5227807;28;20036;-68
2022/09/05 10:12:35;;;;;;;1.95;1.80;;;;;;;29.61;65.01;101742.38;5226103;28;20036;-67
2022/09/05 10:15:20;;;;;;;8.60;1.90;;;;;;;29.62;64.61;101753.16;5226886;28;20100;-67
2022/09/05 10:18:03;;;;;;;1.52;1.27;;;;;;;29.76;65.06;101756.25;5225881;28;20017;-67
2022/09/05 10:21:00;;;;;;;3.33;1.77;;;;;;;29.86;64.29;101738.16;5226908;28;20029;-67
2022/09/05 10:23:55;;;;;;;3.38;2.17;;;;;;;30.06;64.93;101744.56;5226174;28;20481;-66
2022/09/05 10:26:53;;;;;;;1.65;1.63;;;;;;;30.20;65.13;101739.28;5227328;28;20397;-68
2022/09/05 10:29:48;;;;;;;2.25;1.20;;;;;;;30.36;63.47;101744.72;5225769;28;20033;-67
2022/09/05 10:32:34;;;;;;;1.52;1.42;;;;;;;30.20;64.08;101730.91;5227375;28;20033;-66
2022/09/05 10:35:17;;;;;;;7.20;2.75;;;;;;;30.02;62.95;101702.72;5225147;28;20032;-67
2022/09/05 10:37:54;;;;;;;1.70;1.60;;;;;;;30.29;63.91;101731.50;5225312;28;20057;-68
2022/09/05 10:40:27;;;;;;;1.13;1.08;;;;;;;30.59;64.42;101722.50;5225118;28;20024;-68
2022/09/05 10:43:21;;;;;;;2.28;2.08;;;;;;;30.67;62.83;101727.00;5225143;28;20078;-68
2022/09/05 10:45:55;;;;;;;2.05;1.70;;;;;;;30.65;62.11;101730.16;5224966;28;20037;-68
2022/09/05 10:48:49;;;;;;;1.75;1.65;;;;;;;30.86;61.68;101716.59;5225684;28;20078;-68
2022/09/05 10:51:35;;;;;;;2.25;2.08;;;;;;;30.94;60.55;101719.47;5226250;28;20089;-68
2022/09/05 10:54:34;;;;;;;2.00;1.88;;;;;;;30.90;60.76;101720.22;5224683;28;20562;-68
2022/09/05 10:57:19;;;;;;;1.98;1.88;;;;;;;30.87;60.91;101720.19;5226084;28;20021;-68
2022/09/05 11:00:32;;;;;;;1.67;1.58;;;;;;;30.87;61.53;101720.19;5226197;28;20038;-68
2022/09/05 11:03:05;;;;;;;1.35;1.33;;;;;;;31.13;61.96;101720.22;5197934;28;20517;-68
2022/09/05 11:05:37;;;;;;;1.80;1.70;;;;;;;31.27;61.13;101702.06;5214646;28;20025;-66
2022/09/05 11:08:17;;;;;;;2.17;1.88;;;;;;;31.48;60.83;101719.91;5223098;28;20082;-68
2022/09/05 11:11:15;;;;;;;1.95;1.90;;;;;;;31.63;61.02;101708.94;5224399;28;20493;-67
2022/09/05 11:13:50;;;;;;;1.52;1.42;;;;;;;31.52;60.62;101714.38;5220925;28;20060;-67
2022/09/05 11:16:48;;;;;;;1.75;1.65;;;;;;;31.42;61.58;101698.31;5225706;28;20541;-67
2022/09/05 11:19:33;;;;;;;2.05;1.63;;;;;;;31.50;61.22;101686.03;5221733;28;20028;-67
2022/09/05 11:22:06;;;;;;;2.08;1.90;;;;;;;31.53;61.58;101711.22;5225595;28;20028;-68
2022/09/05 11:24:49;;;;;;;2.78;2.33;;;;;;;31.56;60.17;101707.66;5224494;28;20123;-68
2022/09/05 11:27:43;;;;;;;1.23;1.23;;;;;;;31.41;60.17;101700.31;5225518;28;20037;-68
2022/09/05 11:30:20;;;;;;;6.15;1.80;;;;;;;31.50;61.12;101702.78;5223854;28;20021;-67
2022/09/05 11:33:15;;;;;;;4.00;2.45;;;;;;;31.73;61.44;101697.94;5225934;28;20056;-68
2022/09/05 11:35:51;;;;;;;7.72;2.05;;;;;;;31.93;60.76;101689.38;5223575;28;20028;-67
2022/09/05 11:38:22;;;;;;;2.55;2.35;;;;;;;31.99;60.22;101690.66;5224920;28;20027;-68
2022/09/05 11:41:19;;;;;;;8.55;2.85;;;;;;;31.77;60.54;101675.63;5224921;28;20025;-68
2022/09/05 11:43:52;;;;;;;1.55;1.50;;;;;;;31.89;60.76;101686.56;5222015;28;20222;-68
2022/09/05 11:46:42;;;;;;;2.53;1.95;;;;;;;31.98;61.28;101669.50;5226348;28;20056;-68
2022/09/05 11:49:33;;;;;;;4.38;1.83;;;;;;;32.01;60.11;101675.13;5225145;28;20043;-68
2022/09/05 11:52:39;;;;;;;1.90;1.80;;;;;;;32.04;60.84;101681.94;5223537;28;20090;-68
2022/09/05 11:55:47;;;;;;;2.97;2.78;;;;;;;32.10;59.82;101677.59;5250014;22;20044;-65
2022/09/05 11:58:32;;;;;;;3.33;2.13;;;;;;;32.31;59.72;101674.25;5239200;28;20076;-65
2022/09/05 12:01:14;;;;;;;1.85;1.70;;;;;;;32.49;59.38;101673.22;5243526;28;20070;-65
2022/09/05 12:03:51;;;;;;;2.08;1.88;;;;;;;32.72;59.13;101666.59;5242819;28;20635;-64
2022/09/05 12:06:40;;;;;;;1.77;1.35;;;;;;;32.76;59.04;101673.84;5243078;28;20468;-63
2022/09/05 12:09:33;;;;;;;2.75;2.55;;;;;;;32.67;58.16;101667.75;5243015;28;20400;-64
2022/09/05 12:12:09;;;;;;;1.88;1.77;;;;;;;32.66;57.06;101656.94;5242946;28;20174;-65
2022/09/05 12:15:05;;;;;;;2.00;1.77;;;;;;;32.69;58.54;101659.78;5242123;28;20033;-64
2022/09/05 12:17:54;;;;;;;1.42;1.33;;;;;;;32.73;58.10;101657.00;5243251;28;20032;-65
2022/09/05 12:20:51;;;;;;;2.33;2.22;;;;;;;32.77;57.69;101664.28;5242150;28;20028;-63
2022/09/05 12:23:49;;;;;;;2.35;2.15;;;;;;;32.79;57.46;101655.50;5242247;28;20104;-64
2022/09/05 12:26:19;;;;;;;2.25;2.03;;;;;;;32.76;57.14;101651.47;5242574;28;20086;-65
2022/09/05 12:29:02;;;;;;;2.75;1.48;;;;;;;32.84;57.10;101657.94;5219482;28;20045;-65
2022/09/05 12:31:44;;;;;;;5.15;2.20;;;;;;;33.05;57.31;101657.25;5221914;28;20036;-64
2022/09/05 12:34:55;;;;;;;8.57;3.28;;;;;;;33.25;56.73;101652.97;5221418;28;20025;-65
2022/09/05 12:37:50;;;;;;;2.13;2.03;;;;;;;33.26;55.68;101656.56;5221091;28;20091;-64
2022/09/05 12:40:28;;;;;;;1.70;1.60;;;;;;;33.01;55.71;101651.63;5221639;28;20025;-65
2022/09/05 12:43:05;;;;;;;2.67;2.15;;;;;;;32.91;55.59;101634.81;5205927;28;20108;-64
2022/09/05 12:46:01;;;;;;;1.60;1.33;;;;;;;32.88;54.61;101653.16;5203130;28;20112;-65